createdAt,value
2023-02-04T00:01:23.481Z,11.55
2023-02-04T00:03:55.154Z,10.15
2023-02-04T00:06:27.334Z,10.82
2023-02-04T00:09:02.027Z,10.85
2023-02-04T00:11:33.919Z,10.80
2023-02-04T00:14:32.211Z,10.73
2023-02-04T00:17:15.020Z,10.75
2023-02-04T00:19:50.588Z,11.85
2023-02-04T00:22:20.640Z,11.38
2023-02-04T00:25:01.868Z,10.13
2023-02-04T00:27:32.549Z,11.05
2023-02-04T00:30:01.612Z,12.45
2023-02-04T00:32:30.225Z,10.32
2023-02-04T00:34:59.025Z,10.93
2023-02-04T00:37:33.409Z,10.43
2023-02-04T00:40:02.015Z,11.07
2023-02-04T00:42:31.264Z,11.48
2023-02-04T00:45:03.331Z,11.88
2023-02-04T00:47:31.733Z,11.57
2023-02-04T00:50:00.154Z,11.40
2023-02-04T00:52:29.995Z,12.48
2023-02-04T00:54:58.472Z,12.20
2023-02-04T00:57:26.738Z,10.93
2023-02-04T00:59:56.682Z,10.10
2023-02-04T01:02:25.020Z,11.20
2023-02-04T01:04:53.468Z,10.45
2023-02-04T01:07:22.065Z,11.80
2023-02-04T01:09:52.097Z,11.20
2023-02-04T01:12:23.063Z,10.88
2023-02-04T01:14:51.657Z,9.23
2023-02-04T01:17:24.728Z,10.65
2023-02-04T01:19:55.168Z,10.90
2023-02-04T01:22:26.568Z,11.52
2023-02-04T01:25:00.192Z,10.80
2023-02-04T01:27:44.807Z,10.15
2023-02-04T01:30:16.200Z,10.35
2023-02-04T01:32:44.901Z,10.88
2023-02-04T01:35:13.220Z,10.85
2023-02-04T01:37:41.667Z,11.45
2023-02-04T01:40:22.710Z,12.38
2023-02-04T01:42:51.422Z,10.18
2023-02-04T01:45:20.035Z,11.13
2023-02-04T01:47:49.087Z,10.57
2023-02-04T01:50:28.392Z,10.40
2023-02-04T01:52:57.219Z,11.23
2023-02-04T01:55:30.526Z,11.68
2023-02-04T01:57:59.450Z,10.27
2023-02-04T02:00:31.283Z,10.57
2023-02-04T02:03:00.735Z,10.82
2023-02-04T02:05:44.552Z,9.65
2023-02-04T02:08:14.100Z,10.00
2023-02-04T02:10:46.934Z,8.98
2023-02-04T02:13:18.338Z,10.35
2023-02-04T02:15:47.036Z,9.50
2023-02-04T02:18:17.174Z,10.40
2023-02-04T02:20:46.400Z,9.00
2023-02-04T02:23:22.982Z,9.10
2023-02-04T02:25:53.168Z,8.27
2023-02-04T02:28:27.467Z,9.35
2023-02-04T02:30:55.950Z,7.95
2023-02-04T02:33:26.396Z,8.75
2023-02-04T02:35:54.994Z,9.23
2023-02-04T02:38:26.660Z,10.10
2023-02-04T02:41:14.512Z,9.45
2023-02-04T02:43:47.496Z,10.27
2023-02-04T02:46:16.366Z,8.88
2023-02-04T02:48:44.730Z,7.88
2023-02-04T02:51:13.738Z,8.43
2023-02-04T02:53:42.701Z,8.60
2023-02-04T02:56:17.442Z,7.88
2023-02-04T02:58:48.443Z,9.38
2023-02-04T03:01:20.245Z,8.13
2023-02-04T03:03:53.232Z,8.63
2023-02-04T03:06:37.011Z,7.60
2023-02-04T03:09:05.631Z,8.35
2023-02-04T03:11:35.610Z,9.07
2023-02-04T03:14:05.021Z,8.82
2023-02-04T03:16:38.117Z,8.40
2023-02-04T03:19:09.034Z,7.97
2023-02-04T03:21:43.684Z,8.25
2023-02-04T03:24:12.612Z,9.75
2023-02-04T03:26:42.906Z,8.30
2023-02-04T03:29:19.099Z,7.70
2023-02-04T03:31:49.888Z,7.25
2023-02-04T03:34:19.081Z,7.97
2023-02-04T03:36:49.792Z,8.48
2023-02-04T03:39:18.502Z,8.02
2023-02-04T03:42:02.501Z,7.93
2023-02-04T03:44:38.811Z,8.27
2023-02-04T03:47:21.302Z,8.50
2023-02-04T03:50:14.917Z,8.60
2023-02-04T03:53:03.894Z,9.15
2023-02-04T03:55:36.526Z,9.20
2023-02-04T03:58:51.296Z,9.23
2023-02-04T04:01:31.806Z,10.02
2023-02-04T04:04:12.696Z,9.57
2023-02-04T04:07:59.100Z,9.40
2023-02-04T04:11:50.616Z,8.30
2023-02-04T04:37:04.807Z,7.35
2023-02-04T04:41:05.555Z,8.73
2023-02-04T04:53:34.976Z,7.63
2023-02-04T05:08:01.832Z,7.57
2023-02-04T05:31:02.830Z,7.10
2023-02-04T05:34:42.744Z,7.40
2023-02-04T05:51:48.180Z,8.43
2023-02-04T05:54:56.655Z,6.50
2023-02-04T06:18:44.889Z,8.07
2023-02-04T06:21:26.002Z,10.25
2023-02-04T06:32:12.560Z,7.95
2023-02-04T06:38:10.629Z,8.15
2023-02-04T07:03:27.255Z,8.27
2023-02-04T07:10:36.438Z,6.22
2023-02-04T07:14:33.435Z,6.60
2023-02-04T07:29:01.574Z,6.35
2023-02-04T08:06:47.253Z,5.90
2023-02-04T08:14:01.280Z,5.72
2023-02-04T08:52:55.964Z,4.60
2023-02-04T08:59:34.976Z,5.97
2023-02-04T09:18:06.182Z,4.95
2023-02-04T09:25:30.236Z,5.13
2023-02-04T09:36:11.372Z,5.38
2023-02-04T09:43:08.934Z,5.50
2023-02-04T09:46:07.346Z,5.10
2023-02-04T09:48:43.899Z,4.90
2023-02-04T09:51:43.101Z,5.35
2023-02-04T09:54:27.067Z,5.57
2023-02-04T09:57:02.381Z,5.28
2023-02-04T09:59:48.900Z,5.03
2023-02-04T10:02:28.364Z,4.90
2023-02-04T10:04:59.130Z,5.93
2023-02-04T10:07:32.267Z,5.53
2023-02-04T10:10:01.025Z,6.03
2023-02-04T10:12:53.557Z,5.80
2023-02-04T10:15:34.297Z,6.22
2023-02-04T10:18:39.161Z,5.13
2023-02-04T10:24:51.286Z,6.47
2023-02-04T10:27:32.001Z,4.97
2023-02-04T10:30:01.282Z,5.88
2023-02-04T10:32:46.308Z,5.60
2023-02-04T10:35:20.810Z,5.60
2023-02-04T10:38:04.726Z,6.65
2023-02-04T10:40:41.026Z,6.32
2023-02-04T10:43:14.521Z,5.50
2023-02-04T10:45:46.744Z,7.28
2023-02-04T10:48:20.960Z,6.35
2023-02-04T10:50:50.679Z,6.15
2023-02-04T10:53:40.962Z,6.50
2023-02-04T10:56:17.169Z,6.05
2023-02-04T10:58:46.006Z,6.65
2023-02-04T11:01:17.154Z,5.82
2023-02-04T11:03:48.373Z,5.22
2023-02-04T11:06:22.228Z,6.43
2023-02-04T11:08:53.685Z,6.80
2023-02-04T11:11:24.636Z,6.53
2023-02-04T11:14:02.240Z,8.23
2023-02-04T11:16:35.605Z,6.78
2023-02-04T11:19:12.335Z,7.30
2023-02-04T11:21:46.358Z,6.88
2023-02-04T11:24:26.085Z,7.43
2023-02-04T11:27:06.816Z,6.32
2023-02-04T11:29:38.935Z,6.28
2023-02-04T11:32:27.333Z,7.10
2023-02-04T11:35:09.288Z,7.03
2023-02-04T11:37:39.459Z,5.97
2023-02-04T11:40:24.392Z,6.93
2023-02-04T11:43:02.084Z,6.45
2023-02-04T11:45:33.865Z,6.40
2023-02-04T11:48:04.700Z,6.85
2023-02-04T11:50:38.453Z,7.38
2023-02-04T11:53:07.142Z,7.55
2023-02-04T11:55:45.268Z,8.65
2023-02-04T11:58:17.906Z,8.48
2023-02-04T12:00:47.071Z,7.50
2023-02-04T12:03:27.363Z,8.35
2023-02-04T12:06:05.734Z,8.90
2023-02-04T12:08:36.710Z,7.45
2023-02-04T12:11:12.387Z,7.72
2023-02-04T12:13:49.666Z,7.28
2023-02-04T12:16:18.469Z,8.23
2023-02-04T12:18:47.310Z,7.63
2023-02-04T12:21:18.849Z,7.75
2023-02-04T12:23:47.242Z,8.35
2023-02-04T12:26:15.782Z,7.70
2023-02-04T12:28:44.294Z,6.90
2023-02-04T12:31:12.820Z,7.60
2023-02-04T12:33:41.260Z,7.63
2023-02-04T12:36:10.739Z,8.25
2023-02-04T12:38:40.842Z,7.00
2023-02-04T12:41:10.652Z,6.93
2023-02-04T12:43:39.370Z,6.50
2023-02-04T12:46:07.976Z,6.25
2023-02-04T12:48:41.114Z,6.22
2023-02-04T12:51:10.190Z,7.50
2023-02-04T12:53:44.984Z,6.03
2023-02-04T12:56:13.426Z,5.95
2023-02-04T12:58:42.190Z,5.75
2023-02-04T13:01:12.635Z,6.22
2023-02-04T13:03:41.769Z,6.28
2023-02-04T13:06:10.688Z,5.72
2023-02-04T13:08:44.843Z,5.70
2023-02-04T13:11:16.519Z,6.20
2023-02-04T13:13:48.417Z,5.93
2023-02-04T13:20:12.830Z,5.97
2023-02-04T13:22:41.855Z,5.22
2023-02-04T13:25:12.596Z,4.65
2023-02-04T13:27:41.254Z,5.80
2023-02-04T13:30:11.220Z,5.57
2023-02-04T13:32:41.370Z,4.85
2023-02-04T13:35:11.633Z,6.20
2023-02-04T13:37:40.354Z,6.40
2023-02-04T13:40:10.024Z,6.47
2023-02-04T13:42:40.109Z,6.72
2023-02-04T13:45:12.407Z,6.05
2023-02-04T13:47:44.044Z,6.45
2023-02-04T13:50:12.750Z,6.22
2023-02-04T13:52:43.256Z,6.13
2023-02-04T13:55:12.070Z,6.72
2023-02-04T13:57:46.678Z,6.57
2023-02-04T14:00:16.393Z,5.55
2023-02-04T14:02:44.886Z,6.35
2023-02-04T14:05:13.455Z,6.18
2023-02-04T14:07:42.074Z,5.45
2023-02-04T14:10:11.248Z,5.63
2023-02-04T14:12:42.198Z,7.70
2023-02-04T14:15:11.466Z,6.88
2023-02-04T14:17:40.102Z,7.70
2023-02-04T14:20:09.346Z,8.60
2023-02-04T14:22:37.763Z,7.25
2023-02-04T14:25:07.212Z,6.95
2023-02-04T14:27:35.957Z,7.15
2023-02-04T14:30:07.228Z,6.88
2023-02-04T14:32:35.879Z,7.05
2023-02-04T14:35:04.648Z,7.07
2023-02-04T14:37:33.606Z,7.60
2023-02-04T14:40:02.446Z,7.40
2023-02-04T14:42:30.976Z,6.85
2023-02-04T14:45:00.536Z,6.80
2023-02-04T14:47:45.372Z,7.18
2023-02-04T14:50:17.732Z,6.82
2023-02-04T14:52:46.442Z,6.93
2023-02-04T14:55:15.480Z,8.02
2023-02-04T14:57:44.068Z,7.25
2023-02-04T15:00:13.696Z,6.32
2023-02-04T15:02:42.573Z,8.00
2023-02-04T15:05:21.138Z,7.40
2023-02-04T15:07:49.713Z,8.65
2023-02-04T15:10:18.421Z,7.68
2023-02-04T15:12:47.464Z,7.72
2023-02-04T15:15:16.162Z,8.60
2023-02-04T15:17:44.779Z,10.23
2023-02-04T15:20:30.201Z,9.20
2023-02-04T15:23:00.631Z,9.15
2023-02-04T15:25:35.598Z,8.90
2023-02-04T15:28:04.389Z,7.88
2023-02-04T15:30:33.669Z,8.55
2023-02-04T15:33:02.651Z,9.13
2023-02-04T15:35:53.499Z,8.68
2023-02-04T15:38:25.623Z,8.95
2023-02-04T15:40:56.117Z,9.70
2023-02-04T15:43:24.971Z,11.35
2023-02-04T15:45:53.989Z,12.10
2023-02-04T15:48:24.268Z,10.30
2023-02-04T15:50:54.887Z,11.20
2023-02-04T15:53:23.780Z,11.63
2023-02-04T15:55:52.603Z,12.00
2023-02-04T15:58:21.321Z,12.13
2023-02-04T16:00:49.846Z,12.20
2023-02-04T16:03:18.622Z,13.05
2023-02-04T16:05:47.220Z,15.13
2023-02-04T16:08:17.236Z,15.00
2023-02-04T16:10:45.823Z,14.43
2023-02-04T16:13:14.605Z,14.95
2023-02-04T16:15:43.202Z,16.83
2023-02-04T16:18:11.841Z,16.83
2023-02-04T16:20:40.411Z,18.95
2023-02-04T16:23:09.164Z,19.40
2023-02-04T16:25:54.099Z,18.60
2023-02-04T16:28:22.908Z,18.55
2023-02-04T16:30:51.749Z,22.15
2023-02-04T16:33:20.431Z,21.38
2023-02-04T16:36:03.216Z,18.27
2023-02-04T16:38:32.184Z,14.32
2023-02-04T16:41:02.544Z,14.55
2023-02-04T16:43:31.383Z,14.50
2023-02-04T16:46:00.216Z,13.50
2023-02-04T16:48:28.922Z,13.45
2023-02-04T16:50:57.782Z,13.50
2023-02-04T16:53:26.432Z,13.43
2023-02-04T16:55:55.958Z,11.77
2023-02-04T16:58:41.259Z,13.20
2023-02-04T17:01:09.792Z,12.27
2023-02-04T17:03:38.614Z,10.77
2023-02-04T17:06:07.564Z,12.52
2023-02-04T17:08:36.199Z,10.52
2023-02-04T17:14:22.151Z,11.98
2023-02-04T17:19:35.015Z,12.52
2023-02-04T17:22:03.668Z,12.32
2023-02-04T17:24:32.173Z,12.88
2023-02-04T17:27:03.393Z,13.20
2023-02-04T17:29:48.311Z,14.32
2023-02-04T17:32:16.798Z,12.20
2023-02-04T17:34:45.519Z,14.23
2023-02-04T17:37:14.387Z,14.95
2023-02-04T17:39:43.852Z,15.55
2023-02-04T17:42:12.308Z,15.07
2023-02-04T17:44:40.830Z,16.20
2023-02-04T17:47:10.912Z,16.05
2023-02-04T17:49:39.525Z,17.05
2023-02-04T17:52:07.889Z,17.00
2023-02-04T17:54:36.550Z,17.35
2023-02-04T17:57:18.308Z,17.90
2023-02-04T17:59:46.928Z,14.75
2023-02-04T18:02:25.695Z,18.38
2023-02-04T18:04:56.076Z,19.08
2023-02-04T18:07:26.037Z,19.85
2023-02-04T18:10:11.705Z,20.02
2023-02-04T18:12:40.217Z,22.33
2023-02-04T18:15:24.817Z,21.50
2023-02-04T18:18:02.019Z,20.08
2023-02-04T18:20:31.235Z,17.95
2023-02-04T18:23:04.654Z,18.13
2023-02-04T18:25:33.972Z,17.75
2023-02-04T18:28:10.923Z,16.98
2023-02-04T18:30:39.702Z,19.52
2023-02-04T18:33:17.849Z,20.50
2023-02-04T18:35:48.345Z,20.02
2023-02-04T18:38:24.996Z,18.70
2023-02-04T18:41:03.915Z,23.35
2023-02-04T18:43:38.851Z,23.00
2023-02-04T18:46:23.861Z,20.45
2023-02-04T18:49:02.344Z,20.35
2023-02-04T18:51:34.246Z,20.25
2023-02-04T18:54:21.355Z,21.05
2023-02-04T18:56:50.222Z,17.42
2023-02-04T18:59:20.284Z,17.33
2023-02-04T19:01:49.248Z,19.38
2023-02-04T19:04:23.567Z,15.77
2023-02-04T19:06:55.112Z,16.40
2023-02-04T19:09:26.031Z,17.95
2023-02-04T19:11:56.131Z,18.02
2023-02-04T19:14:30.461Z,16.98
2023-02-04T19:17:17.058Z,14.25
2023-02-04T19:19:53.351Z,14.10
2023-02-04T19:22:27.950Z,14.98
2023-02-04T19:25:02.055Z,14.98
2023-02-04T19:27:34.297Z,15.50
2023-02-04T19:30:03.726Z,18.00
2023-02-04T19:32:38.784Z,15.85
2023-02-04T19:35:20.506Z,15.65
2023-02-04T19:37:55.358Z,16.00
2023-02-04T19:40:30.843Z,14.55
2023-02-04T19:43:16.108Z,14.88
2023-02-04T19:45:46.061Z,15.55
2023-02-04T19:48:23.801Z,15.40
2023-02-04T19:50:55.377Z,15.45
2023-02-04T19:53:29.542Z,16.80
2023-02-04T19:55:58.114Z,19.15
2023-02-04T19:58:29.829Z,18.38
2023-02-04T20:01:00.996Z,17.83
2023-02-04T20:03:38.406Z,18.83
2023-02-04T20:06:31.015Z,17.33
2023-02-04T20:09:05.205Z,16.73
2023-02-04T20:11:57.271Z,16.92
2023-02-04T20:14:49.412Z,14.38
2023-02-04T20:17:41.335Z,14.18
2023-02-04T20:20:25.279Z,11.90
2023-02-04T20:22:57.656Z,13.02
2023-02-04T20:25:46.031Z,13.60
2023-02-04T20:28:38.358Z,12.95
2023-02-04T20:31:22.382Z,13.70
2023-02-04T20:33:53.075Z,17.05
2023-02-04T20:36:46.873Z,14.27
2023-02-04T20:40:01.183Z,16.25
2023-02-04T20:42:59.376Z,16.83
2023-02-04T20:45:37.270Z,14.07
2023-02-04T20:48:29.665Z,16.13
2023-02-04T20:51:01.516Z,15.13
2023-02-04T20:53:37.428Z,14.60
2023-02-04T20:56:22.481Z,17.25
2023-02-04T20:58:52.362Z,12.32
2023-02-04T21:01:27.562Z,16.02
2023-02-04T21:04:00.384Z,12.98
2023-02-04T21:06:33.594Z,12.25
2023-02-04T21:09:04.461Z,13.77
2023-02-04T21:11:33.088Z,13.55
2023-02-04T21:14:01.577Z,13.88
2023-02-04T21:16:31.710Z,13.73
2023-02-04T21:19:00.369Z,13.48
2023-02-04T21:21:29.061Z,12.30
2023-02-04T21:23:57.797Z,13.38
2023-02-04T21:26:26.479Z,14.55
2023-02-04T21:28:54.971Z,13.18
2023-02-04T21:31:23.553Z,14.50
2023-02-04T21:34:05.129Z,14.02
2023-02-04T21:36:33.810Z,13.82
2023-02-04T21:39:02.402Z,13.02
2023-02-04T21:41:30.958Z,13.80
2023-02-04T21:43:59.644Z,14.93
2023-02-04T21:46:28.571Z,14.73
2023-02-04T21:49:14.296Z,15.75
2023-02-04T21:51:42.831Z,15.88
2023-02-04T21:54:11.412Z,16.08
2023-02-04T21:56:39.950Z,17.75
2023-02-04T21:59:08.634Z,17.55
2023-02-04T22:01:37.388Z,15.93
2023-02-04T22:04:05.867Z,15.48
2023-02-04T22:06:38.165Z,15.10
2023-02-04T22:09:07.497Z,17.05
2023-02-04T22:11:36.271Z,16.38
2023-02-04T22:14:22.390Z,19.40
2023-02-04T22:16:50.913Z,18.58
2023-02-04T22:19:19.755Z,16.30
2023-02-04T22:21:49.690Z,17.13
2023-02-04T22:24:18.418Z,16.63
2023-02-04T22:26:47.026Z,18.30
2023-02-04T22:29:19.508Z,17.48
2023-02-04T22:31:48.079Z,16.40
2023-02-04T22:34:17.024Z,17.25
2023-02-04T22:36:45.902Z,16.52
2023-02-04T22:39:15.981Z,15.63
2023-02-04T22:41:44.806Z,14.63
2023-02-04T22:44:13.484Z,15.65
2023-02-04T22:46:47.173Z,15.45
2023-02-04T22:49:16.111Z,17.52
2023-02-04T22:51:46.666Z,15.45
2023-02-04T22:54:32.625Z,17.83
2023-02-04T22:57:01.011Z,17.40
2023-02-04T22:59:30.395Z,17.83
2023-02-04T23:01:59.098Z,20.35
2023-02-04T23:04:27.862Z,18.17
2023-02-04T23:06:56.337Z,23.35
2023-02-04T23:09:25.312Z,23.02
2023-02-04T23:11:56.867Z,21.58
2023-02-04T23:14:25.644Z,19.10
2023-02-04T23:17:43.903Z,19.25
2023-02-04T23:20:12.893Z,18.85
2023-02-04T23:22:41.502Z,18.10
2023-02-04T23:25:10.452Z,16.50
2023-02-04T23:27:39.141Z,15.73
2023-02-04T23:30:10.583Z,16.13
2023-02-04T23:32:39.190Z,17.13
2023-02-04T23:35:24.168Z,16.33
2023-02-04T23:37:52.842Z,17.23
2023-02-04T23:40:21.625Z,15.38
2023-02-04T23:42:50.211Z,16.92
2023-02-04T23:45:18.778Z,15.55
2023-02-04T23:47:47.318Z,17.45
2023-02-04T23:50:15.957Z,15.73
2023-02-04T23:52:48.304Z,17.52
2023-02-04T23:55:18.419Z,14.65
2023-02-04T23:57:49.905Z,16.00
